Terminal Aerodrome Forecast
Issued by NWS

Home | Current Version | Previous Version | Text Only | Print | Product List | Glossary Off
Versions: 1 2 3 4 5 6 7 8 9 10 11 12 13 14 15 16 17 18 19 20 21

000
FTUS42 KMHX 210812 AAA
TAFOAJ
TAF AMD
KOAJ 210812Z 2108/2206 20006KT P6SM SCT003 BKN140
      TEMPO 2108/2112 6SM BR BKN003
     FM211400 24006KT P6SM SCT020 BKN140
     FM211700 21006KT P6SM SCT040 BKN110
      AMD LTD TO CLD VIS AND WIND=

USA.gov is the U.S. government's official web portal to all federal, state and local government web resources and services.